Aeroporto :
LOGIN :

Iscrizione | Disclaimer

   EN    FR    IT 

 










Sommario :    VFR   VFR Marginale   IFR   IFR Intensivo   IFR Molto Intensivo
Visibilità : 
Base nubi : 
>= 8 km
>= 3000ft
5 / 8 km
1000 / 3000 ft
1500m / 5 km
500 / 1000 ft
800 / 1500m
200 / 500 ft
< 800m
< 200 ft
Simboli :   Temporali  Nebbia  Neve Forte  Precipitazioni Forti  Vento > 20 kt
SIGMETs :   Varie  Temporali  Ghiacco  Turbolenza  Onda orograficha  Ceneri Vulcaniche






- Altitudine del aeroporto : 1504 ft
- Codice IATA : PNA


LEPP - Noain Pamplona

ULTIMO METAR :
  • 232100Z 12005KT 9999 FEW054 03/01 Q1006

METARs OBSOLETI :
  • 232030Z VRB01KT 9999 FEW052 03/01 Q1006
  • 232000Z 14003KT 9999 FEW052 03/02 Q1006
  • 231930Z VRB02KT 9999 -RA BKN048 04/02 Q1006 RERA
  • 231900Z 33005KT 300V010 8000 RA BKN028 03/02 Q1006
  • 231849Z 32006KT 7000 RA BKN024 03/02 Q1006
  • 231830Z 34015KT 300V020 9999 -RA BKN027 04/01 Q1006
  • 231800Z 00000KT 9999 BKN050 06/03 Q1005
  • 231730Z 29003KT 250V320 9999 FEW058 06/03 Q1005
  • 231700Z 24005KT 210V310 9999 SCT033 06/03 Q1005
  • 231630Z 23005KT 190V270 9999 -RA SCT047 05/03 Q1005 RERA

TAF TAF LEPP
Valido dal 23 a 21 ore il 24 a 21 ore UTC


232000Z 2321/2421 23009KT 9999 SCT040 TX08/2414Z TN01/2407Z
PROB40
TEMPO 2410/2414 30010KT
PROB30
TEMPO 2412/2421 3000 RA BKN010



MetMap, La meteo Aeronautica in un colpo d'occhio ! - Copyright ORBIFLY Dicembre 2007 - Disclaimer

ORBIFLY MET'MAP TEAM :

Programmazione e sviluppo : Alexandra Zaïnal
Concezione : Baudouin d'Aumeries
Supporto tecnico e logistico : Manuel Goepfert
Aiuto : Marc-Olivier Méhu
Aiuto per la traduzione : Arnaldo La Scala




FONTI E CREDITI :

   NOAA